sensor_id;sensor_type;location;lat;lon;timestamp;pressure;altitude;pressure_sealevel;temperature;humidity
71465;BME280;59274;49.874;9.154;2023-04-01T00:00:57;98771.75;;;9.58;100.00
71465;BME280;59274;49.874;9.154;2023-04-01T00:03:23;98783.69;;;9.64;100.00
71465;BME280;59274;49.874;9.154;2023-04-01T00:05:49;98779.75;;;9.69;99.79
71465;BME280;59274;49.874;9.154;2023-04-01T00:08:15;98775.56;;;9.64;100.00
71465;BME280;59274;49.874;9.154;2023-04-01T00:10:41;98773.22;;;9.63;100.00
71465;BME280;59274;49.874;9.154;2023-04-01T00:13:07;98773.97;;;9.67;100.00
71465;BME280;59274;49.874;9.154;2023-04-01T00:15:32;98773.25;;;9.59;100.00
71465;BME280;59274;49.874;9.154;2023-04-01T00:17:58;98779.06;;;9.61;100.00
71465;BME280;59274;49.874;9.154;2023-04-01T00:20:24;98777.38;;;9.74;98.74
71465;BME280;59274;49.874;9.154;2023-04-01T00:22:50;98783.56;;;9.75;99.18
71465;BME280;59274;49.874;9.154;2023-04-01T00:25:15;98782.00;;;9.77;100.00
71465;BME280;59274;49.874;9.154;2023-04-01T00:27:42;98780.50;;;9.73;99.99
71465;BME280;59274;49.874;9.154;2023-04-01T00:30:08;98776.66;;;9.70;100.00
71465;BME280;59274;49.874;9.154;2023-04-01T00:32:34;98784.41;;;9.68;100.00
71465;BME280;59274;49.874;9.154;2023-04-01T00:34:59;98788.56;;;9.80;98.39
71465;BME280;59274;49.874;9.154;2023-04-01T00:37:26;98784.66;;;9.85;98.22
71465;BME280;59274;49.874;9.154;2023-04-01T00:39:52;98773.81;;;9.81;99.42
71465;BME280;59274;49.874;9.154;2023-04-01T00:42:17;98780.38;;;9.83;98.31
71465;BME280;59274;49.874;9.154;2023-04-01T00:44:45;98785.81;;;9.83;98.01
71465;BME280;59274;49.874;9.154;2023-04-01T00:47:12;98775.03;;;9.76;99.17
71465;BME280;59274;49.874;9.154;2023-04-01T00:49:40;98774.34;;;9.69;100.00
71465;BME280;59274;49.874;9.154;2023-04-01T00:52:08;98763.94;;;9.64;100.00
71465;BME280;59274;49.874;9.154;2023-04-01T00:54:37;98771.28;;;9.63;100.00
71465;BME280;59274;49.874;9.154;2023-04-01T00:57:08;98768.97;;;9.62;99.85
71465;BME280;59274;49.874;9.154;2023-04-01T00:59:46;98778.00;;;9.52;100.00
71465;BME280;59274;49.874;9.154;2023-04-01T01:02:13;98769.03;;;9.55;100.00
71465;BME280;59274;49.874;9.154;2023-04-01T01:04:40;98766.66;;;9.64;98.98
71465;BME280;59274;49.874;9.154;2023-04-01T01:10:20;98755.53;;;9.51;100.00
71465;BME280;59274;49.874;9.154;2023-04-01T01:15:28;98757.81;;;9.53;99.46
71465;BME280;59274;49.874;9.154;2023-04-01T01:37:07;98763.53;;;9.65;98.50
71465;BME280;59274;49.874;9.154;2023-04-01T01:39:36;98756.13;;;9.73;97.12
71465;BME280;59274;49.874;9.154;2023-04-01T01:42:06;98752.97;;;9.74;97.68
71465;BME280;59274;49.874;9.154;2023-04-01T01:44:33;98765.75;;;9.74;97.00
71465;BME280;59274;49.874;9.154;2023-04-01T01:47:01;98762.28;;;9.73;97.07
71465;BME280;59274;49.874;9.154;2023-04-01T01:49:28;98741.00;;;9.72;97.58
71465;BME280;59274;49.874;9.154;2023-04-01T01:51:56;98746.75;;;9.77;96.87
71465;BME280;59274;49.874;9.154;2023-04-01T01:54:21;98740.19;;;9.75;96.85
71465;BME280;59274;49.874;9.154;2023-04-01T01:56:49;98739.78;;;9.80;95.56
71465;BME280;59274;49.874;9.154;2023-04-01T01:59:18;98742.91;;;9.75;96.76
71465;BME280;59274;49.874;9.154;2023-04-01T02:01:49;98746.00;;;9.77;96.44
71465;BME280;59274;49.874;9.154;2023-04-01T02:04:17;98750.94;;;9.86;95.40
71465;BME280;59274;49.874;9.154;2023-04-01T02:06:54;98745.59;;;9.78;96.58
71465;BME280;59274;49.874;9.154;2023-04-01T02:09:21;98746.72;;;9.81;95.34
71465;BME280;59274;49.874;9.154;2023-04-01T02:11:53;98736.38;;;9.72;96.95
71465;BME280;59274;49.874;9.154;2023-04-01T02:14:35;98739.88;;;9.69;97.42
71465;BME280;59274;49.874;9.154;2023-04-01T02:17:07;98751.16;;;9.64;97.23
71465;BME280;59274;49.874;9.154;2023-04-01T02:19:40;98747.22;;;9.72;96.63
71465;BME280;59274;49.874;9.154;2023-04-01T02:22:13;98746.44;;;9.72;96.38
71465;BME280;59274;49.874;9.154;2023-04-01T02:24:41;98741.81;;;9.69;96.08
71465;BME280;59274;49.874;9.154;2023-04-01T02:27:09;98744.91;;;9.67;97.52
71465;BME280;59274;49.874;9.154;2023-04-01T02:29:35;98738.00;;;9.63;97.57
71465;BME280;59274;49.874;9.154;2023-04-01T02:32:02;98748.06;;;9.62;97.27
71465;BME280;59274;49.874;9.154;2023-04-01T02:34:27;98739.88;;;9.69;95.72
71465;BME280;59274;49.874;9.154;2023-04-01T02:36:55;98747.97;;;9.73;95.10
71465;BME280;59274;49.874;9.154;2023-04-01T02:39:20;98748.78;;;9.70;95.97
71465;BME280;59274;49.874;9.154;2023-04-01T02:41:46;98745.66;;;9.71;95.43
71465;BME280;59274;49.874;9.154;2023-04-01T02:44:13;98753.34;;;9.76;95.13
71465;BME280;59274;49.874;9.154;2023-04-01T02:46:39;98754.06;;;9.80;94.06
71465;BME280;59274;49.874;9.154;2023-04-01T02:49:05;98745.19;;;9.80;94.80
71465;BME280;59274;49.874;9.154;2023-04-01T02:51:31;98755.59;;;9.85;93.89
71465;BME280;59274;49.874;9.154;2023-04-01T02:53:57;98755.97;;;9.87;93.67
71465;BME280;59274;49.874;9.154;2023-04-01T02:56:22;98757.53;;;9.85;93.83
71465;BME280;59274;49.874;9.154;2023-04-01T02:58:48;98751.72;;;9.86;93.59
71465;BME280;59274;49.874;9.154;2023-04-01T03:01:14;98754.38;;;9.90;92.95
71465;BME280;59274;49.874;9.154;2023-04-01T03:03:39;98752.41;;;9.94;93.17
71465;BME280;59274;49.874;9.154;2023-04-01T03:06:10;98753.25;;;9.87;93.02
71465;BME280;59274;49.874;9.154;2023-04-01T03:08:36;98752.56;;;9.79;94.11
71465;BME280;59274;49.874;9.154;2023-04-01T03:11:02;98754.84;;;9.81;93.71
71465;BME280;59274;49.874;9.154;2023-04-01T03:13:27;98754.81;;;9.85;92.78
71465;BME280;59274;49.874;9.154;2023-04-01T03:15:53;98754.81;;;9.85;93.65
71465;BME280;59274;49.874;9.154;2023-04-01T03:18:18;98754.44;;;9.82;94.65
71465;BME280;59274;49.874;9.154;2023-04-01T03:20:44;98758.38;;;9.78;93.98
71465;BME280;59274;49.874;9.154;2023-04-01T03:23:10;98749.03;;;9.82;93.20
71465;BME280;59274;49.874;9.154;2023-04-01T03:25:36;98758.63;;;9.91;92.85
71465;BME280;59274;49.874;9.154;2023-04-01T03:28:01;98759.03;;;9.89;92.74
71465;BME280;59274;49.874;9.154;2023-04-01T03:30:27;98759.41;;;9.91;92.56
71465;BME280;59274;49.874;9.154;2023-04-01T03:32:55;98764.84;;;9.88;92.75
71465;BME280;59274;49.874;9.154;2023-04-01T03:35:20;98755.59;;;9.85;93.74
71465;BME280;59274;49.874;9.154;2023-04-01T03:37:46;98749.03;;;9.82;93.08
71465;BME280;59274;49.874;9.154;2023-04-01T03:40:11;98757.47;;;9.92;92.03
71465;BME280;59274;49.874;9.154;2023-04-01T03:42:37;98750.88;;;9.93;92.02
71465;BME280;59274;49.874;9.154;2023-04-01T03:45:03;98755.53;;;9.92;92.32
71465;BME280;59274;49.874;9.154;2023-04-01T03:47:29;98753.25;;;9.87;93.44
71465;BME280;59274;49.874;9.154;2023-04-01T03:49:55;98748.94;;;9.90;93.14
71465;BME280;59274;49.874;9.154;2023-04-01T03:52:20;98752.88;;;9.85;93.46
71465;BME280;59274;49.874;9.154;2023-04-01T03:54:46;98747.78;;;9.91;92.12
71465;BME280;59274;49.874;9.154;2023-04-01T03:57:11;98750.50;;;9.91;92.33
71465;BME280;59274;49.874;9.154;2023-04-01T03:59:37;98759.41;;;9.91;92.10
71465;BME280;59274;49.874;9.154;2023-04-01T04:02:02;98747.47;;;9.85;94.02
71465;BME280;59274;49.874;9.154;2023-04-01T04:04:28;98743.13;;;9.91;92.11
71465;BME280;59274;49.874;9.154;2023-04-01T04:06:54;98746.63;;;9.88;92.52
71465;BME280;59274;49.874;9.154;2023-04-01T04:09:19;98743.97;;;9.85;92.97
71465;BME280;59274;49.874;9.154;2023-04-01T04:11:45;98745.94;;;9.80;93.44
71465;BME280;59274;49.874;9.154;2023-04-01T04:14:10;98749.84;;;9.79;93.97
71465;BME280;59274;49.874;9.154;2023-04-01T04:16:36;98748.56;;;9.88;92.26
71465;BME280;59274;49.874;9.154;2023-04-01T04:19:03;98744.75;;;9.85;93.59
71465;BME280;59274;49.874;9.154;2023-04-01T04:21:28;98756.38;;;9.86;93.49
71465;BME280;59274;49.874;9.154;2023-04-01T04:23:54;98748.22;;;9.86;92.93
71465;BME280;59274;49.874;9.154;2023-04-01T04:26:20;98748.56;;;9.88;93.14
71465;BME280;59274;49.874;9.154;2023-04-01T04:28:45;98747.09;;;9.83;93.54
71465;BME280;59274;49.874;9.154;2023-04-01T04:31:11;98748.56;;;9.88;92.79
71465;BME280;59274;49.874;9.154;2023-04-01T04:33:37;98735.06;;;9.84;94.03
71465;BME280;59274;49.874;9.154;2023-04-01T04:36:03;98744.78;;;9.81;93.75
71465;BME280;59274;49.874;9.154;2023-04-01T04:38:29;98743.22;;;9.80;95.08
71465;BME280;59274;49.874;9.154;2023-04-01T04:40:55;98738.72;;;9.67;98.49
71465;BME280;59274;49.874;9.154;2023-04-01T04:43:21;98754.31;;;9.56;98.61
71465;BME280;59274;49.874;9.154;2023-04-01T04:45:46;98739.31;;;9.48;100.00
71465;BME280;59274;49.874;9.154;2023-04-01T04:48:14;98741.38;;;9.33;100.00
71465;BME280;59274;49.874;9.154;2023-04-01T04:50:42;98733.34;;;9.19;100.00
71465;BME280;59274;49.874;9.154;2023-04-01T04:53:11;98739.22;;;9.14;100.00
71465;BME280;59274;49.874;9.154;2023-04-01T04:55:37;98736.94;;;9.09;100.00
71465;BME280;59274;49.874;9.154;2023-04-01T04:58:02;98741.63;;;9.01;100.00
71465;BME280;59274;49.874;9.154;2023-04-01T05:00:28;98726.16;;;9.01;100.00
71465;BME280;59274;49.874;9.154;2023-04-01T05:02:53;98729.69;;;8.91;100.00
71465;BME280;59274;49.874;9.154;2023-04-01T05:05:19;98729.69;;;8.91;100.00
71465;BME280;59274;49.874;9.154;2023-04-01T05:07:44;98728.63;;;8.78;100.00
71465;BME280;59274;49.874;9.154;2023-04-01T05:10:10;98730.19;;;8.79;100.00
71465;BME280;59274;49.874;9.154;2023-04-01T05:12:35;98729.44;;;8.72;100.00
71465;BME280;59274;49.874;9.154;2023-04-01T05:15:04;98732.53;;;8.74;100.00
71465;BME280;59274;49.874;9.154;2023-04-01T05:17:30;98734.88;;;8.68;100.00
71465;BME280;59274;49.874;9.154;2023-04-01T05:19:56;98727.94;;;8.63;100.00
71465;BME280;59274;49.874;9.154;2023-04-01T05:22:21;98741.09;;;8.61;100.00
71465;BME280;59274;49.874;9.154;2023-04-01T05:24:47;98735.25;;;8.70;100.00
71465;BME280;59274;49.874;9.154;2023-04-01T05:27:13;98731.03;;;8.66;100.00
71465;BME280;59274;49.874;9.154;2023-04-01T05:29:39;98740.31;;;8.64;100.00
71465;BME280;59274;49.874;9.154;2023-04-01T05:32:04;98738.72;;;8.71;100.00
71465;BME280;59274;49.874;9.154;2023-04-01T05:34:30;98731.81;;;8.66;100.00
71465;BME280;59274;49.874;9.154;2023-04-01T05:36:55;98740.31;;;8.61;100.00
71465;BME280;59274;49.874;9.154;2023-04-01T05:39:21;98745.41;;;8.52;100.00
71465;BME280;59274;49.874;9.154;2023-04-01T05:41:46;98738.81;;;8.53;100.00
71465;BME280;59274;49.874;9.154;2023-04-01T05:44:12;98732.69;;;8.45;100.00
71465;BME280;59274;49.874;9.154;2023-04-01T05:46:37;98741.22;;;8.44;100.00
71465;BME280;59274;49.874;9.154;2023-04-01T05:49:03;98746.53;;;8.54;100.00
71465;BME280;59274;49.874;9.154;2023-04-01T05:51:28;98734.94;;;8.57;100.00
71465;BME280;59274;49.874;9.154;2023-04-01T05:53:54;98734.63;;;8.41;100.00
71465;BME280;59274;49.874;9.154;2023-04-01T05:56:19;98743.88;;;8.47;100.00
71465;BME280;59274;49.874;9.154;2023-04-01T05:58:47;98748.50;;;8.50;100.00
71465;BME280;59274;49.874;9.154;2023-04-01T06:01:15;98740.78;;;8.52;100.00
71465;BME280;59274;49.874;9.154;2023-04-01T06:03:41;98749.69;;;8.49;100.00
71465;BME280;59274;49.874;9.154;2023-04-01T06:06:14;98746.63;;;8.44;100.00
71465;BME280;59274;49.874;9.154;2023-04-01T06:08:41;98747.00;;;8.39;100.00
71465;BME280;59274;49.874;9.154;2023-04-01T06:19:44;98740.41;;;8.47;100.00
71465;BME280;59274;49.874;9.154;2023-04-01T06:30:35;98743.81;;;8.61;100.00
71465;BME280;59274;49.874;9.154;2023-04-01T06:36:32;98741.88;;;8.66;100.00
71465;BME280;59274;49.874;9.154;2023-04-01T06:50:28;98747.97;;;8.80;100.00
71465;BME280;59274;49.874;9.154;2023-04-01T06:53:37;98737.91;;;8.77;100.00
71465;BME280;59274;49.874;9.154;2023-04-01T06:55:57;98743.28;;;8.84;100.00
71465;BME280;59274;49.874;9.154;2023-04-01T06:58:29;98749.06;;;8.86;100.00
71465;BME280;59274;49.874;9.154;2023-04-01T07:00:58;98749.06;;;8.86;100.00
71465;BME280;59274;49.874;9.154;2023-04-01T07:03:40;98737.13;;;8.80;100.00
71465;BME280;59274;49.874;9.154;2023-04-01T07:06:14;98737.53;;;8.79;100.00
71465;BME280;59274;49.874;9.154;2023-04-01T07:08:43;98742.97;;;8.72;100.00
71465;BME280;59274;49.874;9.154;2023-04-01T07:11:22;98733.69;;;8.73;100.00
71465;BME280;59274;49.874;9.154;2023-04-01T07:14:00;98737.50;;;8.82;100.00
71465;BME280;59274;49.874;9.154;2023-04-01T07:18:59;98738.25;;;8.83;100.00
71465;BME280;59274;49.874;9.154;2023-04-01T07:21:40;98739.03;;;8.87;100.00
71465;BME280;59274;49.874;9.154;2023-04-01T07:24:21;98743.53;;;9.04;100.00
71465;BME280;59274;49.874;9.154;2023-04-01T07:26:53;98742.75;;;9.03;100.00
71465;BME280;59274;49.874;9.154;2023-04-01T07:29:20;98743.13;;;9.06;100.00
71465;BME280;59274;49.874;9.154;2023-04-01T07:37:25;98742.69;;;9.11;100.00
71465;BME280;59274;49.874;9.154;2023-04-01T07:40:16;98748.50;;;9.13;100.00
71465;BME280;59274;49.874;9.154;2023-04-01T07:51:11;98754.84;;;8.88;100.00
71465;BME280;59274;49.874;9.154;2023-04-01T07:53:47;98750.09;;;9.03;100.00
71465;BME280;59274;49.874;9.154;2023-04-01T07:56:21;98752.34;;;9.15;100.00
71465;BME280;59274;49.874;9.154;2023-04-01T08:18:09;98763.19;;;9.60;100.00
71465;BME280;59274;49.874;9.154;2023-04-01T08:23:33;98761.53;;;9.73;100.00
71465;BME280;59274;49.874;9.154;2023-04-01T08:26:13;98758.78;;;9.76;100.00
71465;BME280;59274;49.874;9.154;2023-04-01T08:31:37;98759.53;;;9.77;100.00
71465;BME280;59274;49.874;9.154;2023-04-01T08:34:13;98770.28;;;9.88;100.00
71465;BME280;59274;49.874;9.154;2023-04-01T08:36:51;98765.13;;;10.00;100.00
71465;BME280;59274;49.874;9.154;2023-04-01T08:39:32;98757.69;;;10.08;100.00
71465;BME280;59274;49.874;9.154;2023-04-01T08:56:40;98782.41;;;10.13;100.00
71465;BME280;59274;49.874;9.154;2023-04-01T09:12:57;98786.53;;;9.88;100.00
71465;BME280;59274;49.874;9.154;2023-04-01T09:15:36;98784.91;;;9.97;100.00
71465;BME280;59274;49.874;9.154;2023-04-01T09:18:41;98776.22;;;10.13;100.00
71465;BME280;59274;49.874;9.154;2023-04-01T09:32:51;98791.34;;;10.48;100.00
71465;BME280;59274;49.874;9.154;2023-04-01T09:38:29;98789.28;;;10.25;100.00
71465;BME280;59274;49.874;9.154;2023-04-01T09:46:31;98801.91;;;10.73;100.00
71465;BME280;59274;49.874;9.154;2023-04-01T10:32:51;98808.59;;;10.31;100.00
71465;BME280;59274;49.874;9.154;2023-04-01T10:44:29;98817.22;;;10.22;100.00
71465;BME280;59274;49.874;9.154;2023-04-01T10:58:36;98805.44;;;10.36;100.00
71465;BME280;59274;49.874;9.154;2023-04-01T11:23:42;98821.59;;;11.07;100.00
71465;BME280;59274;49.874;9.154;2023-04-01T11:26:30;98820.88;;;11.03;100.00
71465;BME280;59274;49.874;9.154;2023-04-01T11:42:46;98830.81;;;11.13;100.00
71465;BME280;59274;49.874;9.154;2023-04-01T11:48:00;98832.97;;;11.25;100.00
71465;BME280;59274;49.874;9.154;2023-04-01T12:01:40;98836.16;;;11.20;100.00
71465;BME280;59274;49.874;9.154;2023-04-01T12:26:26;98853.66;;;11.16;100.00
71465;BME280;59274;49.874;9.154;2023-04-01T12:31:46;98858.56;;;11.01;100.00
71465;BME280;59274;49.874;9.154;2023-04-01T12:37:05;98861.19;;;11.08;100.00
71465;BME280;59274;49.874;9.154;2023-04-01T12:39:49;98861.31;;;10.97;100.00
71465;BME280;59274;49.874;9.154;2023-04-01T12:45:35;98848.22;;;10.89;100.00
71465;BME280;59274;49.874;9.154;2023-04-01T12:55:59;98861.31;;;10.97;100.00
71465;BME280;59274;49.874;9.154;2023-04-01T12:59:14;98868.31;;;10.95;100.00
71465;BME280;59274;49.874;9.154;2023-04-01T13:09:57;98863.56;;;11.03;100.00
71465;BME280;59274;49.874;9.154;2023-04-01T13:12:40;98865.41;;;11.09;100.00
71465;BME280;59274;49.874;9.154;2023-04-01T13:15:25;98865.94;;;11.54;100.00
71465;BME280;59274;49.874;9.154;2023-04-01T13:20:44;98873.06;;;11.95;100.00
71465;BME280;59274;49.874;9.154;2023-04-01T13:23:29;98871.97;;;11.92;100.00
71465;BME280;59274;49.874;9.154;2023-04-01T13:26:20;98873.16;;;11.91;100.00
71465;BME280;59274;49.874;9.154;2023-04-01T13:34:52;98876.69;;;11.88;100.00
71465;BME280;59274;49.874;9.154;2023-04-01T13:41:05;98880.41;;;11.98;100.00
71465;BME280;59274;49.874;9.154;2023-04-01T13:43:37;98882.53;;;11.87;100.00
71465;BME280;59274;49.874;9.154;2023-04-01T14:00:55;98905.44;;;11.05;100.00
71465;BME280;59274;49.874;9.154;2023-04-01T14:04:22;98908.63;;;11.00;100.00
71465;BME280;59274;49.874;9.154;2023-04-01T14:09:45;98905.25;;;10.89;100.00
71465;BME280;59274;49.874;9.154;2023-04-01T14:12:36;98913.41;;;10.89;100.00
71465;BME280;59274;49.874;9.154;2023-04-01T14:15:25;98909.56;;;10.86;100.00
71465;BME280;59274;49.874;9.154;2023-04-01T14:31:59;98911.69;;;11.32;100.00
71465;BME280;59274;49.874;9.154;2023-04-01T14:37:25;98909.72;;;11.06;100.00
71465;BME280;59274;49.874;9.154;2023-04-01T14:50:41;98924.75;;;11.14;100.00
71465;BME280;59274;49.874;9.154;2023-04-01T14:55:36;98916.56;;;11.45;100.00
71465;BME280;59274;49.874;9.154;2023-04-01T14:58:15;98926.13;;;11.83;100.00
71465;BME280;59274;49.874;9.154;2023-04-01T15:03:45;98931.75;;;11.96;100.00
71465;BME280;59274;49.874;9.154;2023-04-01T15:14:54;98945.81;;;11.64;100.00
71465;BME280;59274;49.874;9.154;2023-04-01T15:33:46;98960.59;;;11.63;100.00
71465;BME280;59274;49.874;9.154;2023-04-01T15:39:37;98968.22;;;11.75;100.00
71465;BME280;59274;49.874;9.154;2023-04-01T15:42:22;98966.22;;;11.79;100.00
71465;BME280;59274;49.874;9.154;2023-04-01T15:45:24;98969.47;;;11.67;100.00
71465;BME280;59274;49.874;9.154;2023-04-01T15:50:53;98972.41;;;11.80;100.00
71465;BME280;59274;49.874;9.154;2023-04-01T15:53:44;98983.78;;;11.71;100.00
71465;BME280;59274;49.874;9.154;2023-04-01T15:56:41;98982.28;;;11.66;100.00
71465;BME280;59274;49.874;9.154;2023-04-01T16:07:47;98991.06;;;11.17;100.00
71465;BME280;59274;49.874;9.154;2023-04-01T16:20:50;98995.25;;;11.25;100.00
71465;BME280;59274;49.874;9.154;2023-04-01T16:23:36;98999.97;;;11.21;100.00
71465;BME280;59274;49.874;9.154;2023-04-01T16:26:09;98991.59;;;11.08;100.00
71465;BME280;59274;49.874;9.154;2023-04-01T16:34:38;98997.59;;;10.92;100.00
71465;BME280;59274;49.874;9.154;2023-04-01T16:37:12;99003.41;;;10.91;100.00
71465;BME280;59274;49.874;9.154;2023-04-01T16:40:23;99003.56;;;11.11;100.00
71465;BME280;59274;49.874;9.154;2023-04-01T16:42:51;98997.88;;;11.32;100.00
71465;BME280;59274;49.874;9.154;2023-04-01T16:48:36;99009.16;;;11.30;100.00
71465;BME280;59274;49.874;9.154;2023-04-01T16:51:16;99006.22;;;11.18;100.00
71465;BME280;59274;49.874;9.154;2023-04-01T16:53:45;99015.63;;;11.10;100.00
71465;BME280;59274;49.874;9.154;2023-04-01T16:56:24;99020.81;;;10.97;100.00
71465;BME280;59274;49.874;9.154;2023-04-01T17:01:55;99028.72;;;10.81;100.00
71465;BME280;59274;49.874;9.154;2023-04-01T17:14:58;99043.84;;;10.82;100.00
71465;BME280;59274;49.874;9.154;2023-04-01T17:17:37;99049.34;;;10.75;100.00
71465;BME280;59274;49.874;9.154;2023-04-01T17:20:33;99044.75;;;10.68;100.00
71465;BME280;59274;49.874;9.154;2023-04-01T17:23:23;99055.28;;;10.59;100.00
71465;BME280;59274;49.874;9.154;2023-04-01T17:26:19;99059.59;;;10.56;100.00
71465;BME280;59274;49.874;9.154;2023-04-01T17:34:18;99065.94;;;10.39;100.00
71465;BME280;59274;49.874;9.154;2023-04-01T17:37:01;99074.56;;;10.24;100.00
71465;BME280;59274;49.874;9.154;2023-04-01T17:40:00;99074.22;;;10.22;100.00
71465;BME280;59274;49.874;9.154;2023-04-01T17:42:43;99083.13;;;10.22;100.00
71465;BME280;59274;49.874;9.154;2023-04-01T17:45:44;99090.84;;;10.27;100.00
71465;BME280;59274;49.874;9.154;2023-04-01T17:53:59;99099.44;;;10.15;100.00
71465;BME280;59274;49.874;9.154;2023-04-01T17:57:14;99104.47;;;10.13;100.00
71465;BME280;59274;49.874;9.154;2023-04-01T18:07:54;99126.59;;;10.08;100.00
71465;BME280;59274;49.874;9.154;2023-04-01T18:10:29;99119.63;;;10.03;100.00
71465;BME280;59274;49.874;9.154;2023-04-01T18:21:45;99149.09;;;9.98;100.00
71465;BME280;59274;49.874;9.154;2023-04-01T18:24:45;99148.72;;;9.99;100.00
71465;BME280;59274;49.874;9.154;2023-04-01T18:30:31;99157.63;;;9.96;100.00
71465;BME280;59274;49.874;9.154;2023-04-01T18:33:15;99172.75;;;9.97;100.00
71465;BME280;59274;49.874;9.154;2023-04-01T18:35:53;99176.63;;;10.00;100.00
71465;BME280;59274;49.874;9.154;2023-04-01T18:38:31;99173.91;;;9.96;100.00
71465;BME280;59274;49.874;9.154;2023-04-01T18:41:15;99181.69;;;9.94;100.00
71465;BME280;59274;49.874;9.154;2023-04-01T18:52:21;99184.41;;;9.83;100.00
71465;BME280;59274;49.874;9.154;2023-04-01T18:57:26;99192.16;;;9.81;100.00
71465;BME280;59274;49.874;9.154;2023-04-01T19:00:14;99196.44;;;9.79;100.00
71465;BME280;59274;49.874;9.154;2023-04-01T19:05:33;99200.28;;;9.81;100.00
71465;BME280;59274;49.874;9.154;2023-04-01T19:08:38;99210.38;;;9.81;100.00
71465;BME280;59274;49.874;9.154;2023-04-01T19:14:00;99218.50;;;9.85;100.00
71465;BME280;59274;49.874;9.154;2023-04-01T19:19:28;99216.56;;;9.81;100.00
71465;BME280;59274;49.874;9.154;2023-04-01T19:21:58;99224.72;;;9.78;100.00
71465;BME280;59274;49.874;9.154;2023-04-01T19:24:46;99227.44;;;9.74;100.00
71465;BME280;59274;49.874;9.154;2023-04-01T19:27:34;99228.59;;;9.73;100.00
71465;BME280;59274;49.874;9.154;2023-04-01T19:35:59;99231.72;;;9.72;100.00
71465;BME280;59274;49.874;9.154;2023-04-01T19:38:39;99239.44;;;9.73;100.00
71465;BME280;59274;49.874;9.154;2023-04-01T19:52:33;99241.78;;;9.61;100.00
71465;BME280;59274;49.874;9.154;2023-04-01T19:57:58;99248.38;;;9.63;100.00
71465;BME280;59274;49.874;9.154;2023-04-01T20:03:42;99252.63;;;9.64;100.00
71465;BME280;59274;49.874;9.154;2023-04-01T20:14:05;99268.50;;;9.62;100.00
71465;BME280;59274;49.874;9.154;2023-04-01T20:19:07;99278.97;;;9.60;100.00
71465;BME280;59274;49.874;9.154;2023-04-01T20:21:42;99283.25;;;9.58;100.00
71465;BME280;59274;49.874;9.154;2023-04-01T20:24:20;99276.25;;;9.60;100.00
71465;BME280;59274;49.874;9.154;2023-04-01T20:27:10;99278.59;;;9.58;100.00
71465;BME280;59274;49.874;9.154;2023-04-01T20:30:03;99284.03;;;9.58;100.00
71465;BME280;59274;49.874;9.154;2023-04-01T20:35:50;99281.69;;;9.53;100.00
71465;BME280;59274;49.874;9.154;2023-04-01T20:38:41;99290.19;;;9.55;100.00
71465;BME280;59274;49.874;9.154;2023-04-01T20:41:27;99290.97;;;9.52;100.00
71465;BME280;59274;49.874;9.154;2023-04-01T20:46:38;99294.84;;;9.48;100.00
71465;BME280;59274;49.874;9.154;2023-04-01T20:55:03;99306.09;;;9.50;100.00
71465;BME280;59274;49.874;9.154;2023-04-01T21:00:26;99313.44;;;9.49;100.00
71465;BME280;59274;49.874;9.154;2023-04-01T21:07:59;99313.44;;;9.46;100.00
71465;BME280;59274;49.874;9.154;2023-04-01T21:15:57;99330.09;;;9.48;100.00
71465;BME280;59274;49.874;9.154;2023-04-01T21:18:58;99333.59;;;9.45;100.00
71465;BME280;59274;49.874;9.154;2023-04-01T21:21:32;99338.59;;;9.42;100.00
71465;BME280;59274;49.874;9.154;2023-04-01T21:29:50;99354.84;;;9.35;100.00
71465;BME280;59274;49.874;9.154;2023-04-01T21:37:44;99369.16;;;9.39;100.00
71465;BME280;59274;49.874;9.154;2023-04-01T21:58:00;99395.88;;;9.27;100.00
71465;BME280;59274;49.874;9.154;2023-04-01T22:00:38;99400.91;;;9.28;100.00
71465;BME280;59274;49.874;9.154;2023-04-01T22:05:59;99407.88;;;9.29;100.00
71465;BME280;59274;49.874;9.154;2023-04-01T22:21:59;99415.22;;;9.22;100.00
71465;BME280;59274;49.874;9.154;2023-04-01T22:24:59;99420.63;;;9.25;100.00
71465;BME280;59274;49.874;9.154;2023-04-01T22:27:41;99422.97;;;9.27;100.00
71465;BME280;59274;49.874;9.154;2023-04-01T22:30:29;99419.88;;;9.28;100.00
71465;BME280;59274;49.874;9.154;2023-04-01T22:33:07;99418.31;;;9.31;100.00
71465;BME280;59274;49.874;9.154;2023-04-01T22:35:48;99419.09;;;9.38;100.00
71465;BME280;59274;49.874;9.154;2023-04-01T22:41:27;99417.16;;;9.28;100.00
71465;BME280;59274;49.874;9.154;2023-04-01T22:43:57;99420.66;;;9.32;100.00
71465;BME280;59274;49.874;9.154;2023-04-01T22:49:42;99426.84;;;9.29;100.00
71465;BME280;59274;49.874;9.154;2023-04-01T22:52:35;99438.06;;;9.31;100.00
71465;BME280;59274;49.874;9.154;2023-04-01T22:55:25;99433.03;;;9.30;100.00
71465;BME280;59274;49.874;9.154;2023-04-01T22:58:09;99437.28;;;9.27;100.00
71465;BME280;59274;49.874;9.154;2023-04-01T23:03:29;99440.38;;;9.33;100.00
71465;BME280;59274;49.874;9.154;2023-04-01T23:05:58;99436.50;;;9.27;100.00
71465;BME280;59274;49.874;9.154;2023-04-01T23:11:18;99447.75;;;9.32;100.00
71465;BME280;59274;49.874;9.154;2023-04-01T23:13:48;99445.00;;;9.25;100.00
71465;BME280;59274;49.874;9.154;2023-04-01T23:16:23;99448.09;;;9.24;100.00
71465;BME280;59274;49.874;9.154;2023-04-01T23:24:31;99453.50;;;9.24;100.00
71465;BME280;59274;49.874;9.154;2023-04-01T23:27:23;99460.50;;;9.25;100.00
71465;BME280;59274;49.874;9.154;2023-04-01T23:29:47;99464.38;;;9.27;100.00
71465;BME280;59274;49.874;9.154;2023-04-01T23:32:17;99457.41;;;9.23;100.00
71465;BME280;59274;49.874;9.154;2023-04-01T23:34:58;99461.63;;;9.20;100.00
71465;BME280;59274;49.874;9.154;2023-04-01T23:37:25;99472.06;;;9.18;100.00
71465;BME280;59274;49.874;9.154;2023-04-01T23:39:53;99475.94;;;9.17;100.00
71465;BME280;59274;49.874;9.154;2023-04-01T23:42:29;99479.81;;;9.16;100.00
71465;BME280;59274;49.874;9.154;2023-04-01T23:45:16;99484.84;;;9.18;100.00
71465;BME280;59274;49.874;9.154;2023-04-01T23:47:46;99484.09;;;9.21;100.00